createdAt,value
2023-01-17T00:00:32.813Z,93895.69
2023-01-17T00:02:59.362Z,93907.50
2023-01-17T00:05:44.339Z,93912.56
2023-01-17T00:08:32.287Z,93910.09
2023-01-17T00:10:59.038Z,93910.94
2023-01-17T00:13:25.431Z,93909.25
2023-01-17T00:15:52.099Z,93911.78
2023-01-17T00:18:18.692Z,93915.16
2023-01-17T00:21:03.800Z,93920.22
2023-01-17T00:23:48.765Z,93917.75
2023-01-17T00:26:18.357Z,93918.59
2023-01-17T00:28:45.680Z,93928.72
2023-01-17T00:31:14.066Z,93928.78
2023-01-17T00:33:40.558Z,93934.72
2023-01-17T00:36:07.901Z,93941.44
2023-01-17T00:38:36.798Z,93943.19
2023-01-17T00:41:14.114Z,93955.75
2023-01-17T00:43:59.903Z,93955.00
2023-01-17T00:46:44.697Z,93959.22
2023-01-17T00:49:30.253Z,93963.50
2023-01-17T00:52:14.967Z,93962.66
2023-01-17T00:54:59.845Z,93966.91
2023-01-17T00:57:44.704Z,93960.19
2023-01-17T01:00:30.709Z,93966.19
2023-01-17T01:03:16.191Z,93972.09
2023-01-17T01:06:01.018Z,93986.41
2023-01-17T01:08:48.396Z,93985.63
2023-01-17T01:11:36.963Z,93997.44
2023-01-17T01:14:22.064Z,93996.59
2023-01-17T01:17:07.231Z,93994.06
2023-01-17T01:19:51.964Z,94008.38
2023-01-17T01:22:37.347Z,94020.25
2023-01-17T01:25:23.097Z,94007.66
2023-01-17T01:28:07.856Z,94020.25
2023-01-17T01:30:53.325Z,94016.03
2023-01-17T01:33:19.846Z,94018.56
2023-01-17T01:35:54.478Z,94021.06
2023-01-17T01:38:24.641Z,94019.41
2023-01-17T01:40:56.366Z,94018.63
2023-01-17T01:43:47.112Z,94032.94
2023-01-17T01:46:23.371Z,94031.28
2023-01-17T01:49:01.993Z,94024.50
2023-01-17T01:51:35.682Z,94033.03
2023-01-17T01:54:10.303Z,94028.88
2023-01-17T01:56:37.875Z,94024.66
2023-01-17T01:59:08.798Z,94022.91
2023-01-17T02:01:35.661Z,94024.56
2023-01-17T02:04:03.475Z,94014.50
2023-01-17T02:06:35.505Z,94014.50
2023-01-17T02:09:05.718Z,94019.50
2023-01-17T02:11:33.601Z,94008.56
2023-01-17T02:14:00.144Z,94005.19
2023-01-17T02:16:48.633Z,94002.66
2023-01-17T02:19:38.750Z,94003.50
2023-01-17T02:22:23.804Z,94010.25
2023-01-17T02:25:11.233Z,94013.59
2023-01-17T02:27:56.478Z,94017.88
2023-01-17T02:30:22.801Z,94012.81
2023-01-17T02:33:12.412Z,94013.59
2023-01-17T02:36:07.558Z,94016.13
2023-01-17T02:38:39.766Z,94022.03
2023-01-17T02:41:16.445Z,94013.63
2023-01-17T02:43:43.296Z,94022.03
2023-01-17T02:46:10.038Z,94027.13
2023-01-17T02:48:37.722Z,94025.50
2023-01-17T02:51:38.957Z,94029.72
2023-01-17T02:54:24.522Z,94018.84
2023-01-17T02:57:15.015Z,94024.75
2023-01-17T03:00:03.621Z,94029.84
2023-01-17T03:02:45.055Z,94028.13
2023-01-17T03:05:20.276Z,94034.84
2023-01-17T03:07:48.263Z,94031.50
2023-01-17T03:10:18.413Z,94035.66
2023-01-17T03:12:45.779Z,94031.50
2023-01-17T03:15:14.478Z,94029.81
2023-01-17T03:17:46.582Z,94039.03
2023-01-17T03:20:13.008Z,94036.44
2023-01-17T03:22:39.461Z,94048.28
2023-01-17T03:25:06.353Z,94045.75
2023-01-17T03:27:32.953Z,94057.53
2023-01-17T03:29:59.395Z,94042.44
2023-01-17T03:32:25.776Z,94052.50
2023-01-17T03:34:52.151Z,94052.50
2023-01-17T03:37:18.504Z,94056.75
2023-01-17T03:39:44.875Z,94059.28
2023-01-17T03:42:11.293Z,94066.81
2023-01-17T03:44:37.740Z,94068.50
2023-01-17T03:47:04.239Z,94065.16
2023-01-17T03:49:31.304Z,94082.81
2023-01-17T03:51:58.308Z,94077.72
2023-01-17T03:54:24.694Z,94079.44
2023-01-17T03:56:51.060Z,94078.66
2023-01-17T03:59:17.459Z,94074.38
2023-01-17T04:01:43.894Z,94077.81
2023-01-17T04:04:10.373Z,94080.28
2023-01-17T04:06:36.763Z,94082.81
2023-01-17T04:09:03.456Z,94086.19
2023-01-17T04:11:30.004Z,94091.25
2023-01-17T04:13:56.384Z,94094.59
2023-01-17T04:16:28.905Z,94095.50
2023-01-17T04:18:55.732Z,94092.13
2023-01-17T04:21:22.329Z,94087.94
2023-01-17T04:23:48.809Z,94098.09
2023-01-17T04:26:15.218Z,94098.06
2023-01-17T04:28:41.619Z,94110.69
2023-01-17T04:31:14.436Z,94097.25
2023-01-17T04:33:40.872Z,94103.09
2023-01-17T04:36:07.613Z,94102.28
2023-01-17T04:38:35.139Z,94109.06
2023-01-17T04:41:01.943Z,94114.13
2023-01-17T04:43:28.327Z,94110.78
2023-01-17T04:45:58.536Z,94103.22
2023-01-17T04:48:25.315Z,94108.25
2023-01-17T04:50:51.676Z,94105.72
2023-01-17T04:53:18.037Z,94109.09
2023-01-17T04:55:47.379Z,94106.56
2023-01-17T04:58:13.760Z,94106.59
2023-01-17T05:00:40.277Z,94103.25
2023-01-17T05:03:07.244Z,94100.75
2023-01-17T05:05:33.723Z,94099.91
2023-01-17T05:08:00.225Z,94099.06
2023-01-17T05:10:26.822Z,94097.38
2023-01-17T05:12:57.617Z,94106.69
2023-01-17T05:15:25.203Z,94109.19
2023-01-17T05:17:52.547Z,94114.25
2023-01-17T05:20:20.362Z,94105.00
2023-01-17T05:22:55.415Z,94125.19
2023-01-17T05:25:27.177Z,94120.13
2023-01-17T05:27:54.040Z,94128.56
2023-01-17T05:30:21.692Z,94121.81
2023-01-17T05:32:52.670Z,94121.00
2023-01-17T05:35:21.524Z,94131.09
2023-01-17T05:37:49.226Z,94131.97
2023-01-17T05:40:20.578Z,94143.75
2023-01-17T05:42:48.358Z,94134.47
2023-01-17T05:45:16.855Z,94140.38
2023-01-17T05:47:44.880Z,94146.31
2023-01-17T05:50:16.899Z,94150.50
2023-01-17T05:53:01.953Z,94155.56
2023-01-17T05:55:30.068Z,94163.16
2023-01-17T05:57:56.645Z,94150.56
2023-01-17T06:00:23.424Z,94155.66
2023-01-17T06:02:50.127Z,94173.34
2023-01-17T06:05:16.855Z,94169.97
2023-01-17T06:07:45.199Z,94170.84
2023-01-17T06:10:14.393Z,94168.31
2023-01-17T06:12:42.695Z,94164.97
2023-01-17T06:15:10.056Z,94170.84
2023-01-17T06:17:36.793Z,94179.25
2023-01-17T06:20:05.466Z,94174.22
2023-01-17T06:22:32.632Z,94177.59
2023-01-17T06:25:00.495Z,94172.53
2023-01-17T06:27:27.139Z,94186.84
2023-01-17T06:29:53.691Z,94185.16
2023-01-17T06:32:20.188Z,94183.47
2023-01-17T06:34:46.550Z,94180.09
2023-01-17T06:37:12.903Z,94188.50
2023-01-17T06:39:39.240Z,94178.44
2023-01-17T06:42:05.679Z,94180.13
2023-01-17T06:44:32.075Z,94178.44
2023-01-17T06:46:58.519Z,94185.97
2023-01-17T06:49:25.703Z,94193.56
2023-01-17T06:51:52.133Z,94195.22
2023-01-17T06:54:19.330Z,94195.22
2023-01-17T06:56:46.786Z,94201.06
2023-01-17T06:59:13.370Z,94198.56
2023-01-17T07:01:40.177Z,94201.06
2023-01-17T07:04:06.760Z,94199.41
2023-01-17T07:06:35.733Z,94196.03
2023-01-17T07:09:04.035Z,94196.88
2023-01-17T07:11:30.752Z,94201.94
2023-01-17T07:13:57.098Z,94197.72
2023-01-17T07:16:23.577Z,94191.88
2023-01-17T07:18:51.250Z,94186.81
2023-01-17T07:21:17.794Z,94189.34
2023-01-17T07:23:44.230Z,94194.38
2023-01-17T07:26:10.735Z,94198.59
2023-01-17T07:28:37.115Z,94196.91
2023-01-17T07:31:07.948Z,94200.28
2023-01-17T07:33:35.004Z,94192.72
2023-01-17T07:36:08.448Z,94192.69
2023-01-17T07:38:35.158Z,94188.50
2023-01-17T07:41:01.910Z,94189.31
2023-01-17T07:43:28.650Z,94191.81
2023-01-17T07:45:55.201Z,94193.50
2023-01-17T07:48:23.939Z,94195.19
2023-01-17T07:50:58.006Z,94194.34
2023-01-17T07:53:26.449Z,94191.00
2023-01-17T07:55:53.639Z,94191.00
2023-01-17T07:58:20.426Z,94201.09
2023-01-17T08:00:47.434Z,94200.22
2023-01-17T08:03:16.123Z,94183.44
2023-01-17T08:05:43.959Z,94189.34
2023-01-17T08:08:10.320Z,94178.41
2023-01-17T08:10:36.841Z,94170.88
2023-01-17T08:13:03.624Z,94164.16
2023-01-17T08:15:30.259Z,94166.69
2023-01-17T08:17:58.898Z,94159.09
2023-01-17T08:20:27.841Z,94173.41
2023-01-17T08:22:56.439Z,94174.22
2023-01-17T08:25:24.501Z,94180.94
2023-01-17T08:27:52.102Z,94176.75
2023-01-17T08:30:18.860Z,94186.00
2023-01-17T08:32:46.415Z,94180.97
2023-01-17T08:35:12.940Z,94178.44
2023-01-17T08:37:39.432Z,94175.91
2023-01-17T08:40:07.406Z,94175.06
2023-01-17T08:42:39.282Z,94170.84
2023-01-17T08:45:08.070Z,94168.34
2023-01-17T08:47:35.066Z,94160.75
2023-01-17T08:50:01.578Z,94164.06
2023-01-17T08:52:28.799Z,94169.94
2023-01-17T08:54:55.337Z,94159.84
2023-01-17T08:57:22.405Z,94172.44
2023-01-17T08:59:48.922Z,94168.22
2023-01-17T09:02:17.478Z,94173.22
2023-01-17T09:04:47.997Z,94171.50
2023-01-17T09:07:16.384Z,94166.44
2023-01-17T09:09:42.857Z,94176.53
2023-01-17T09:12:09.363Z,94173.09
2023-01-17T09:14:37.403Z,94166.31
2023-01-17T09:17:05.617Z,94170.53
2023-01-17T09:19:32.191Z,94165.44
2023-01-17T09:21:58.678Z,94162.06
2023-01-17T09:24:25.130Z,94166.28
2023-01-17T09:26:51.585Z,94157.88
2023-01-17T09:29:18.685Z,94146.06
2023-01-17T09:31:47.170Z,94149.41
2023-01-17T09:34:14.409Z,94148.56
2023-01-17T09:36:42.005Z,94160.34
2023-01-17T09:39:10.684Z,94163.72
2023-01-17T09:41:49.184Z,94163.66
2023-01-17T09:44:21.519Z,94163.66
2023-01-17T09:46:51.785Z,94162.00
2023-01-17T09:49:24.228Z,94170.41
2023-01-17T09:51:50.670Z,94173.72
2023-01-17T09:54:23.120Z,94175.38
2023-01-17T09:57:27.818Z,94187.94
2023-01-17T10:00:13.312Z,94186.19
2023-01-17T10:03:08.872Z,94182.72
2023-01-17T10:05:48.090Z,94181.84
2023-01-17T10:08:36.968Z,94173.41
2023-01-17T10:11:25.239Z,94169.25
2023-01-17T10:14:21.136Z,94170.94
2023-01-17T10:16:53.641Z,94168.44
2023-01-17T10:19:25.785Z,94151.63
2023-01-17T10:22:10.138Z,94142.41
2023-01-17T10:24:45.736Z,94142.44
2023-01-17T10:27:28.185Z,94138.25
2023-01-17T10:29:54.801Z,94129.03
2023-01-17T10:32:28.586Z,94127.41
2023-01-17T10:35:02.106Z,94124.84
2023-01-17T10:37:40.311Z,94113.09
2023-01-17T10:40:31.407Z,94102.19
2023-01-17T10:43:04.743Z,94092.03
2023-01-17T10:45:39.990Z,94088.66
2023-01-17T10:48:39.771Z,94076.00
2023-01-17T10:51:11.957Z,94066.69
2023-01-17T10:53:47.995Z,94069.16
2023-01-17T10:56:18.223Z,94059.91
2023-01-17T10:58:48.044Z,94062.50
2023-01-17T11:01:20.789Z,94059.09
2023-01-17T11:03:51.055Z,94064.09
2023-01-17T11:06:23.556Z,94056.47
2023-01-17T11:08:55.365Z,94058.16
2023-01-17T11:11:29.930Z,94057.22
2023-01-17T11:13:58.610Z,94051.25
2023-01-17T11:16:28.616Z,94052.06
2023-01-17T11:19:16.144Z,94055.38
2023-01-17T11:21:55.888Z,94051.91
2023-01-17T11:24:34.605Z,94045.13
2023-01-17T11:27:05.043Z,94048.44
2023-01-17T11:29:40.328Z,94039.75
2023-01-17T11:32:31.005Z,94040.47
2023-01-17T11:35:12.483Z,94024.00
2023-01-17T11:37:39.047Z,94021.22
2023-01-17T11:40:16.692Z,94021.03
2023-01-17T11:42:43.285Z,94017.75
2023-01-17T11:45:27.322Z,94011.03
2023-01-17T11:48:08.995Z,94010.00
2023-01-17T11:50:48.941Z,93999.00
2023-01-17T11:53:25.535Z,93998.84
2023-01-17T11:55:58.573Z,93993.00
2023-01-17T11:58:27.954Z,93980.84
2023-01-17T12:01:34.713Z,93983.25
2023-01-17T12:04:40.309Z,93976.69
2023-01-17T12:07:24.460Z,93981.84
2023-01-17T12:10:01.189Z,93971.47
2023-01-17T12:13:12.645Z,93967.78
2023-01-17T12:16:30.234Z,93967.78
2023-01-17T12:19:27.647Z,93963.81
2023-01-17T12:21:58.181Z,93953.69
2023-01-17T12:24:33.767Z,93964.88
2023-01-17T12:27:19.272Z,93959.81
2023-01-17T12:30:18.048Z,93956.34
2023-01-17T12:33:02.690Z,93959.53
2023-01-17T12:35:45.901Z,93943.50
2023-01-17T12:38:31.647Z,93954.25
2023-01-17T12:41:07.344Z,93952.44
2023-01-17T12:43:37.339Z,93949.69
2023-01-17T12:46:11.727Z,93947.97
2023-01-17T12:48:39.259Z,93943.53
2023-01-17T12:51:17.403Z,93947.59
2023-01-17T12:54:04.161Z,93939.97
2023-01-17T12:56:44.491Z,93940.84
2023-01-17T12:59:32.469Z,93934.16
2023-01-17T13:02:02.328Z,93944.34
2023-01-17T13:04:58.864Z,93932.66
2023-01-17T13:07:53.119Z,93927.91
2023-01-17T13:10:48.482Z,93935.47
2023-01-17T13:13:29.501Z,93917.88
2023-01-17T13:16:15.895Z,93918.09
2023-01-17T13:18:47.695Z,93916.59
2023-01-17T13:21:20.349Z,93920.13
2023-01-17T13:24:07.934Z,93904.69
2023-01-17T13:26:52.935Z,93903.97
2023-01-17T13:29:41.208Z,93900.66
2023-01-17T13:32:33.104Z,93908.38
2023-01-17T13:35:20.935Z,93905.84
2023-01-17T13:38:05.485Z,93902.28
2023-01-17T13:40:36.940Z,93902.28
2023-01-17T13:43:18.154Z,93900.00
2023-01-17T13:45:52.627Z,93898.31
2023-01-17T13:48:19.137Z,93889.13
2023-01-17T13:50:48.279Z,93886.59
2023-01-17T13:53:39.430Z,93889.06
2023-01-17T13:56:35.436Z,93874.66
2023-01-17T13:59:03.582Z,93881.47
2023-01-17T14:01:34.652Z,93880.59
2023-01-17T14:04:03.832Z,93874.88
2023-01-17T14:06:41.049Z,93872.41
2023-01-17T14:09:20.471Z,93877.53
2023-01-17T14:11:53.964Z,93873.19
2023-01-17T14:14:42.672Z,93880.00
2023-01-17T14:17:26.528Z,93877.31
2023-01-17T14:19:57.123Z,93884.94
2023-01-17T14:22:49.751Z,93864.75
2023-01-17T14:25:20.975Z,93861.38
2023-01-17T14:27:49.228Z,93856.28
2023-01-17T14:30:24.628Z,93855.44
2023-01-17T14:33:05.853Z,93863.25
2023-01-17T14:35:38.931Z,93865.16
2023-01-17T14:38:41.152Z,93868.72
2023-01-17T14:41:13.184Z,93870.53
2023-01-17T14:43:42.718Z,93869.75
2023-01-17T14:46:21.081Z,93864.84
2023-01-17T14:48:47.745Z,93854.03
2023-01-17T14:51:20.374Z,93854.94
2023-01-17T14:53:54.321Z,93860.03
2023-01-17T14:56:20.780Z,93852.59
2023-01-17T14:58:47.163Z,93848.47
2023-01-17T15:01:20.859Z,93841.72
2023-01-17T15:03:47.445Z,93830.75
2023-01-17T15:06:20.155Z,93823.25
2023-01-17T15:08:47.492Z,93819.09
2023-01-17T15:11:22.383Z,93811.47
2023-01-17T15:13:51.284Z,93809.91
2023-01-17T15:16:25.175Z,93797.38
2023-01-17T15:18:53.671Z,93804.19
2023-01-17T15:21:23.526Z,93800.81
2023-01-17T15:23:55.200Z,93804.31
2023-01-17T15:26:25.240Z,93816.97
2023-01-17T15:28:55.624Z,93816.16
2023-01-17T15:31:39.261Z,93822.13
2023-01-17T15:34:07.967Z,93819.72
2023-01-17T15:36:35.021Z,93811.38
2023-01-17T15:39:20.285Z,93808.16
2023-01-17T15:41:48.146Z,93798.16
2023-01-17T15:44:42.689Z,93803.22
2023-01-17T15:47:38.742Z,93800.78
2023-01-17T15:50:27.743Z,93799.94
2023-01-17T15:52:55.779Z,93795.00
2023-01-17T15:55:28.777Z,93792.53
2023-01-17T15:57:55.558Z,93791.88
2023-01-17T16:00:37.308Z,93785.31
2023-01-17T16:03:30.516Z,93791.28
2023-01-17T16:06:00.241Z,93787.88
2023-01-17T16:08:28.476Z,93789.66
2023-01-17T16:11:01.693Z,93783.78
2023-01-17T16:13:30.354Z,93790.50
2023-01-17T16:16:14.640Z,93785.44
2023-01-17T16:18:41.960Z,93795.56
2023-01-17T16:21:21.391Z,93800.66
2023-01-17T16:23:49.010Z,93787.28
2023-01-17T16:26:15.896Z,93786.47
2023-01-17T16:28:42.707Z,93781.50
2023-01-17T16:31:09.233Z,93778.13
2023-01-17T16:33:35.791Z,93774.78
2023-01-17T16:36:02.160Z,93779.00
2023-01-17T16:38:28.806Z,93771.47
2023-01-17T16:40:55.259Z,93766.44
2023-01-17T16:43:21.769Z,93764.78
2023-01-17T16:45:53.076Z,93754.75
2023-01-17T16:48:20.259Z,93753.03
2023-01-17T16:50:50.671Z,93739.59
2023-01-17T16:53:18.767Z,93751.34
2023-01-17T16:55:45.255Z,93741.25
2023-01-17T16:58:11.763Z,93726.97
2023-01-17T17:00:40.085Z,93722.81
2023-01-17T17:03:07.048Z,93722.81
2023-01-17T17:05:34.704Z,93719.50
2023-01-17T17:08:01.278Z,93727.91
2023-01-17T17:10:27.775Z,93729.69
2023-01-17T17:12:54.257Z,93730.56
2023-01-17T17:15:21.541Z,93738.13
2023-01-17T17:17:48.187Z,93744.84
2023-01-17T17:20:15.501Z,93744.88
2023-01-17T17:22:44.023Z,93748.25
2023-01-17T17:25:12.032Z,93735.69
2023-01-17T17:27:39.599Z,93742.41
2023-01-17T17:30:06.576Z,93729.81
2023-01-17T17:32:33.127Z,93731.53
2023-01-17T17:34:59.703Z,93735.75
2023-01-17T17:37:28.895Z,93742.41
2023-01-17T17:39:57.166Z,93750.03
2023-01-17T17:42:23.692Z,93744.13
2023-01-17T17:44:50.156Z,93731.59
2023-01-17T17:47:16.721Z,93735.78
2023-01-17T17:49:43.421Z,93738.34
2023-01-17T17:52:11.977Z,93749.25
2023-01-17T17:54:38.470Z,93743.41
2023-01-17T17:57:04.893Z,93749.28
2023-01-17T17:59:31.708Z,93745.09
2023-01-17T18:01:59.655Z,93744.28
2023-01-17T18:04:26.702Z,93746.81
2023-01-17T18:06:57.062Z,93750.97
2023-01-17T18:09:23.693Z,93761.06
2023-01-17T18:11:50.247Z,93761.88
2023-01-17T18:14:17.672Z,93767.78
2023-01-17T18:16:44.853Z,93772.84
2023-01-17T18:19:20.247Z,93773.69
2023-01-17T18:21:48.719Z,93768.66
2023-01-17T18:24:16.669Z,93769.53
2023-01-17T18:26:46.029Z,93777.91
2023-01-17T18:29:15.683Z,93778.78
2023-01-17T18:31:43.970Z,93784.63
2023-01-17T18:34:13.666Z,93791.41
2023-01-17T18:36:40.556Z,93789.72
2023-01-17T18:39:15.717Z,93798.13
2023-01-17T18:41:42.641Z,93800.63
2023-01-17T18:44:10.563Z,93793.09
2023-01-17T18:46:37.837Z,93788.03
2023-01-17T18:49:04.887Z,93783.81
2023-01-17T18:51:34.349Z,93785.50
2023-01-17T18:54:04.914Z,93785.53
2023-01-17T18:56:36.105Z,93778.81
2023-01-17T18:59:05.684Z,93779.72
2023-01-17T19:01:35.495Z,93793.94
2023-01-17T19:04:04.507Z,93788.91
2023-01-17T19:06:33.555Z,93799.81
2023-01-17T19:09:00.315Z,93797.31
2023-01-17T19:11:28.049Z,93799.84
2023-01-17T19:13:55.046Z,93802.38
2023-01-17T19:16:34.580Z,93806.53
2023-01-17T19:19:04.220Z,93807.38
2023-01-17T19:21:31.124Z,93800.69
2023-01-17T19:23:57.973Z,93817.47
2023-01-17T19:26:27.087Z,93804.06
2023-01-17T19:28:56.130Z,93819.13
2023-01-17T19:31:25.230Z,93814.94
2023-01-17T19:33:54.575Z,93827.53
2023-01-17T19:36:23.883Z,93825.03
2023-01-17T19:39:03.347Z,93827.56
2023-01-17T19:41:31.473Z,93825.84
2023-01-17T19:44:03.192Z,93821.66
2023-01-17T19:46:30.053Z,93823.31
2023-01-17T19:48:57.853Z,93820.81
2023-01-17T19:51:26.653Z,93829.22
2023-01-17T19:53:56.440Z,93825.00
2023-01-17T19:56:25.784Z,93827.53
2023-01-17T19:58:52.783Z,93823.31
2023-01-17T20:01:23.956Z,93824.97
2023-01-17T20:03:52.648Z,93827.53
2023-01-17T20:06:21.922Z,93825.00
2023-01-17T20:08:48.793Z,93834.25
2023-01-17T20:11:19.596Z,93842.63
2023-01-17T20:13:47.864Z,93847.66
2023-01-17T20:16:16.562Z,93845.97
2023-01-17T20:18:43.765Z,93850.19
2023-01-17T20:21:17.774Z,93844.31
2023-01-17T20:23:46.809Z,93853.56
2023-01-17T20:26:19.722Z,93845.97
2023-01-17T20:28:48.771Z,93846.84
2023-01-17T20:31:17.904Z,93847.69
2023-01-17T20:33:46.825Z,93843.44
2023-01-17T20:36:15.926Z,93852.66
2023-01-17T20:38:43.827Z,93856.88
2023-01-17T20:41:20.814Z,93852.69
2023-01-17T20:43:52.351Z,93856.03
2023-01-17T20:46:20.676Z,93856.88
2023-01-17T20:48:52.382Z,93854.34
2023-01-17T20:51:19.800Z,93849.31
2023-01-17T20:53:51.673Z,93853.50
2023-01-17T20:56:20.097Z,93850.97
2023-01-17T20:58:46.535Z,93847.63
2023-01-17T21:01:19.705Z,93849.34
2023-01-17T21:03:48.167Z,93851.84
2023-01-17T21:06:15.338Z,93847.66
2023-01-17T21:08:44.547Z,93847.66
2023-01-17T21:11:13.473Z,93841.78
2023-01-17T21:13:40.004Z,93835.91
2023-01-17T21:16:08.230Z,93830.84
2023-01-17T21:18:35.824Z,93833.38
2023-01-17T21:21:05.601Z,93829.22
2023-01-17T21:23:32.019Z,93823.34
2023-01-17T21:25:58.515Z,93820.84
2023-01-17T21:28:27.626Z,93819.16
2023-01-17T21:30:54.832Z,93818.31
2023-01-17T21:33:23.335Z,93817.56
2023-01-17T21:35:49.830Z,93820.06
2023-01-17T21:38:16.596Z,93814.22
2023-01-17T21:40:43.893Z,93814.25
2023-01-17T21:43:11.454Z,93827.69
2023-01-17T21:45:39.356Z,93832.69
2023-01-17T21:48:06.782Z,93825.97
2023-01-17T21:50:34.397Z,93829.34
2023-01-17T21:53:00.786Z,93825.13
2023-01-17T21:55:45.694Z,93829.31
2023-01-17T21:58:32.541Z,93832.63
2023-01-17T22:01:15.584Z,93835.16
2023-01-17T22:03:42.545Z,93830.13
2023-01-17T22:06:10.231Z,93841.00
2023-01-17T22:08:37.156Z,93839.31
2023-01-17T22:11:08.601Z,93845.16
2023-01-17T22:13:35.971Z,93844.38
2023-01-17T22:16:05.447Z,93841.81
2023-01-17T22:18:38.882Z,93849.38
2023-01-17T22:21:08.793Z,93847.69
2023-01-17T22:23:36.358Z,93846.03
2023-01-17T22:26:09.562Z,93840.16
2023-01-17T22:28:38.104Z,93844.34
2023-01-17T22:31:17.037Z,93853.56
2023-01-17T22:33:45.249Z,93845.16
2023-01-17T22:36:16.502Z,93842.69
2023-01-17T22:38:44.157Z,93848.56
2023-01-17T22:41:13.359Z,93849.41
2023-01-17T22:43:42.270Z,93848.59
2023-01-17T22:46:10.732Z,93841.03
2023-01-17T22:48:38.142Z,93845.22
2023-01-17T22:51:06.625Z,93849.44
2023-01-17T22:53:33.131Z,93844.38
2023-01-17T22:56:07.765Z,93844.38
2023-01-17T22:58:34.989Z,93846.06
2023-01-17T23:01:06.607Z,93858.63
2023-01-17T23:03:33.848Z,93857.81
2023-01-17T23:06:12.946Z,93864.50
2023-01-17T23:08:41.476Z,93861.97
2023-01-17T23:11:41.179Z,93854.44
2023-01-17T23:14:30.495Z,93852.78
2023-01-17T23:17:18.015Z,93854.44
2023-01-17T23:19:50.802Z,93858.63
2023-01-17T23:22:20.153Z,93858.59
2023-01-17T23:24:52.548Z,93856.94
2023-01-17T23:27:48.302Z,93856.09
2023-01-17T23:30:19.953Z,93861.97
2023-01-17T23:32:49.264Z,93864.50
2023-01-17T23:35:17.130Z,93856.13
2023-01-17T23:38:02.597Z,93848.56
2023-01-17T23:40:31.613Z,93853.59
2023-01-17T23:43:16.587Z,93846.88
2023-01-17T23:45:43.340Z,93844.38
2023-01-17T23:48:10.604Z,93844.38
2023-01-17T23:50:39.254Z,93841.88
2023-01-17T23:53:08.568Z,93833.47
2023-01-17T23:55:40.238Z,93837.69
2023-01-17T23:58:09.720Z,93836.88
